Norfolk International Airport
KORF : now visible

Airfield :











YOU CAN JOIN US ON...

 
LOGIN :

Register | Disclaimer

   EN    FR    IT 

 









Legend :    VFR   Marginal VFR   IFR   Intensive IFR   Very Intensive IFR
Visi :
Ceiling :
>= 8 km
>= 3000ft
5 to 8 km
1000 to 3000 ft
1500m to 5 km
500 to 1000 ft
800 to 1500m
200 to 500 ft
< 800m
< 200 ft
Symbols :   Thunderstorms  Fog  Heavy snow  Heavy precipitations  Wind > 20 kt







- Airport Elevation : 26 ft
- IATA code : ORF


KORF - Norfolk International

CURRENT METAR :
  • 160651Z 00000KT 10SM CLR 23/22 A3006 RMK AO2 SLP177 T02330222 $

EXPIRED METARs :
  • 160551Z 00000KT 10SM CLR 23/22 A3007 RMK AO2 SLP183 T02330217 10256 20228 58005 $
  • 160451Z 00000KT 10SM CLR 24/23 A3008 RMK AO2 SLP186 T02390228 403000228 $
  • 160351Z 00000KT 10SM CLR 24/22 A3009 RMK AO2 SLP188 T02390217 $

TAF KORF
Valid from the 16 at 06:00 until the 17 at 06:00 UTC


160559Z 1606/1706 04002KT P6SM SKC
TEMPO 1606/1610 SCT020
FM161400 05007KT P6SM SCT040
FM170000 11003KT P6SM SCT250
FM170400 VRB02KT P6SM SCT025
No reported NOTAMs for that airfield.



MET'MAP, your aeronautical weather chart ! - Copyright ORBIFLY December 2007 - Disclaimer

ORBIFLY MET'MAP TEAM :

Programming & Development : Alexandra Zaïnal
Concept & Development : Baudouin d'Aumeries
Co-Development & Prog : Marc-Olivier Méhu
Technical & hardware support : Manuel Goepfert

Contact : metmap@orbifly.com




SOURCES & CREDITS :

   NOAA       Earth
Advisory